sensor_id;sensor_type;location;lat;lon;timestamp;P1;durP1;ratioP1;P2;durP2;ratioP2
24897;SDS011;12957;49.434;8.684;2022-09-21T00:01:19;7.60;;;2.50;;
24897;SDS011;12957;49.434;8.684;2022-09-21T00:03:46;3.40;;;2.57;;
24897;SDS011;12957;49.434;8.684;2022-09-21T00:06:12;4.25;;;2.30;;
24897;SDS011;12957;49.434;8.684;2022-09-21T00:08:39;3.50;;;2.67;;
24897;SDS011;12957;49.434;8.684;2022-09-21T00:11:05;2.93;;;2.37;;
24897;SDS011;12957;49.434;8.684;2022-09-21T00:13:32;5.43;;;2.63;;
24897;SDS011;12957;49.434;8.684;2022-09-21T00:15:59;6.03;;;2.93;;
24897;SDS011;12957;49.434;8.684;2022-09-21T00:18:24;2.67;;;2.27;;
24897;SDS011;12957;49.434;8.684;2022-09-21T00:20:50;5.90;;;2.63;;
24897;SDS011;12957;49.434;8.684;2022-09-21T00:23:17;5.60;;;2.63;;
24897;SDS011;12957;49.434;8.684;2022-09-21T00:25:42;7.67;;;2.80;;
24897;SDS011;12957;49.434;8.684;2022-09-21T00:28:08;9.20;;;2.83;;
24897;SDS011;12957;49.434;8.684;2022-09-21T00:30:34;5.27;;;3.00;;
24897;SDS011;12957;49.434;8.684;2022-09-21T00:32:59;9.43;;;2.60;;
24897;SDS011;12957;49.434;8.684;2022-09-21T00:35:24;4.60;;;2.53;;
24897;SDS011;12957;49.434;8.684;2022-09-21T00:37:50;4.53;;;2.50;;
24897;SDS011;12957;49.434;8.684;2022-09-21T00:40:15;8.10;;;2.90;;
24897;SDS011;12957;49.434;8.684;2022-09-21T00:42:41;4.72;;;2.47;;
24897;SDS011;12957;49.434;8.684;2022-09-21T00:45:09;6.70;;;2.93;;
24897;SDS011;12957;49.434;8.684;2022-09-21T00:47:45;4.73;;;2.53;;
24897;SDS011;12957;49.434;8.684;2022-09-21T00:50:16;8.37;;;2.90;;
24897;SDS011;12957;49.434;8.684;2022-09-21T00:52:46;2.60;;;2.37;;
24897;SDS011;12957;49.434;8.684;2022-09-21T00:55:21;9.57;;;3.10;;
24897;SDS011;12957;49.434;8.684;2022-09-21T00:57:58;7.77;;;3.00;;
24897;SDS011;12957;49.434;8.684;2022-09-21T01:00:26;3.13;;;2.53;;
24897;SDS011;12957;49.434;8.684;2022-09-21T01:02:51;3.00;;;2.77;;
24897;SDS011;12957;49.434;8.684;2022-09-21T01:05:19;4.50;;;3.13;;
24897;SDS011;12957;49.434;8.684;2022-09-21T01:07:45;6.17;;;3.10;;
24897;SDS011;12957;49.434;8.684;2022-09-21T01:10:12;8.10;;;3.00;;
24897;SDS011;12957;49.434;8.684;2022-09-21T01:21:50;4.30;;;2.63;;
24897;SDS011;12957;49.434;8.684;2022-09-21T01:32:11;4.83;;;2.67;;
24897;SDS011;12957;49.434;8.684;2022-09-21T01:40:14;6.20;;;3.00;;
24897;SDS011;12957;49.434;8.684;2022-09-21T01:42:43;6.77;;;2.50;;
24897;SDS011;12957;49.434;8.684;2022-09-21T01:45:10;5.50;;;2.67;;
24897;SDS011;12957;49.434;8.684;2022-09-21T01:47:41;8.33;;;3.20;;
24897;SDS011;12957;49.434;8.684;2022-09-21T01:50:07;8.30;;;2.97;;
24897;SDS011;12957;49.434;8.684;2022-09-21T01:52:55;10.47;;;3.03;;
24897;SDS011;12957;49.434;8.684;2022-09-21T01:55:25;8.70;;;3.07;;
24897;SDS011;12957;49.434;8.684;2022-09-21T01:58:12;5.10;;;2.93;;
24897;SDS011;12957;49.434;8.684;2022-09-21T02:00:43;2.80;;;2.60;;
24897;SDS011;12957;49.434;8.684;2022-09-21T02:05:54;3.50;;;2.77;;
24897;SDS011;12957;49.434;8.684;2022-09-21T02:08:21;8.00;;;3.00;;
24897;SDS011;12957;49.434;8.684;2022-09-21T02:10:50;3.03;;;2.60;;
24897;SDS011;12957;49.434;8.684;2022-09-21T02:13:16;4.37;;;2.83;;
24897;SDS011;12957;49.434;8.684;2022-09-21T02:21:22;2.80;;;2.57;;
24897;SDS011;12957;49.434;8.684;2022-09-21T02:24:11;4.10;;;2.80;;
24897;SDS011;12957;49.434;8.684;2022-09-21T02:29:38;3.37;;;2.50;;
24897;SDS011;12957;49.434;8.684;2022-09-21T02:34:45;6.10;;;2.97;;
24897;SDS011;12957;49.434;8.684;2022-09-21T02:42:30;5.87;;;3.10;;
24897;SDS011;12957;49.434;8.684;2022-09-21T02:45:04;5.53;;;2.93;;
24897;SDS011;12957;49.434;8.684;2022-09-21T02:47:42;8.27;;;3.13;;
24897;SDS011;12957;49.434;8.684;2022-09-21T02:50:13;3.87;;;2.80;;
24897;SDS011;12957;49.434;8.684;2022-09-21T02:52:43;4.63;;;2.73;;
24897;SDS011;12957;49.434;8.684;2022-09-21T02:55:09;7.43;;;3.37;;
24897;SDS011;12957;49.434;8.684;2022-09-21T02:57:35;3.77;;;3.03;;
24897;SDS011;12957;49.434;8.684;2022-09-21T03:00:02;6.57;;;3.37;;
24897;SDS011;12957;49.434;8.684;2022-09-21T03:02:37;3.53;;;3.23;;
24897;SDS011;12957;49.434;8.684;2022-09-21T03:05:04;5.13;;;3.33;;
24897;SDS011;12957;49.434;8.684;2022-09-21T03:07:31;6.80;;;3.20;;
24897;SDS011;12957;49.434;8.684;2022-09-21T03:09:56;5.18;;;3.60;;
24897;SDS011;12957;49.434;8.684;2022-09-21T03:12:22;6.23;;;3.17;;
24897;SDS011;12957;49.434;8.684;2022-09-21T03:14:48;9.13;;;3.67;;
24897;SDS011;12957;49.434;8.684;2022-09-21T03:17:15;5.77;;;3.47;;
24897;SDS011;12957;49.434;8.684;2022-09-21T03:19:40;7.47;;;3.20;;
24897;SDS011;12957;49.434;8.684;2022-09-21T03:22:06;6.80;;;3.23;;
24897;SDS011;12957;49.434;8.684;2022-09-21T03:24:31;9.43;;;3.13;;
24897;SDS011;12957;49.434;8.684;2022-09-21T03:27:16;4.13;;;3.10;;
24897;SDS011;12957;49.434;8.684;2022-09-21T03:29:43;4.57;;;3.33;;
24897;SDS011;12957;49.434;8.684;2022-09-21T03:32:08;9.33;;;3.27;;
24897;SDS011;12957;49.434;8.684;2022-09-21T03:34:34;3.57;;;2.87;;
24897;SDS011;12957;49.434;8.684;2022-09-21T03:37:00;5.32;;;2.60;;
24897;SDS011;12957;49.434;8.684;2022-09-21T03:39:26;7.13;;;3.13;;
24897;SDS011;12957;49.434;8.684;2022-09-21T03:41:52;5.27;;;3.17;;
24897;SDS011;12957;49.434;8.684;2022-09-21T03:44:20;7.63;;;3.47;;
24897;SDS011;12957;49.434;8.684;2022-09-21T03:46:45;7.07;;;3.47;;
24897;SDS011;12957;49.434;8.684;2022-09-21T03:49:11;13.88;;;3.45;;
24897;SDS011;12957;49.434;8.684;2022-09-21T03:51:37;5.57;;;3.63;;
24897;SDS011;12957;49.434;8.684;2022-09-21T03:54:03;3.77;;;3.30;;
24897;SDS011;12957;49.434;8.684;2022-09-21T03:56:29;6.47;;;3.00;;
24897;SDS011;12957;49.434;8.684;2022-09-21T03:58:55;13.93;;;3.70;;
24897;SDS011;12957;49.434;8.684;2022-09-21T04:01:20;6.20;;;3.40;;
24897;SDS011;12957;49.434;8.684;2022-09-21T04:03:46;6.20;;;3.23;;
24897;SDS011;12957;49.434;8.684;2022-09-21T04:06:11;7.43;;;3.57;;
24897;SDS011;12957;49.434;8.684;2022-09-21T04:08:38;4.77;;;3.43;;
24897;SDS011;12957;49.434;8.684;2022-09-21T04:11:14;4.77;;;3.10;;
24897;SDS011;12957;49.434;8.684;2022-09-21T04:13:40;6.40;;;3.07;;
24897;SDS011;12957;49.434;8.684;2022-09-21T04:16:06;4.77;;;3.17;;
24897;SDS011;12957;49.434;8.684;2022-09-21T04:18:33;4.93;;;3.60;;
24897;SDS011;12957;49.434;8.684;2022-09-21T04:20:59;4.87;;;3.43;;
24897;SDS011;12957;49.434;8.684;2022-09-21T04:23:24;3.90;;;3.07;;
24897;SDS011;12957;49.434;8.684;2022-09-21T04:25:50;7.93;;;2.90;;
24897;SDS011;12957;49.434;8.684;2022-09-21T04:28:18;15.67;;;3.50;;
24897;SDS011;12957;49.434;8.684;2022-09-21T04:30:43;5.57;;;2.97;;
24897;SDS011;12957;49.434;8.684;2022-09-21T04:33:08;4.93;;;2.83;;
24897;SDS011;12957;49.434;8.684;2022-09-21T04:35:34;13.20;;;3.00;;
24897;SDS011;12957;49.434;8.684;2022-09-21T04:38:00;4.47;;;2.97;;
24897;SDS011;12957;49.434;8.684;2022-09-21T04:40:25;3.43;;;2.87;;
24897;SDS011;12957;49.434;8.684;2022-09-21T04:42:52;10.40;;;3.23;;
24897;SDS011;12957;49.434;8.684;2022-09-21T04:45:18;4.97;;;3.47;;
24897;SDS011;12957;49.434;8.684;2022-09-21T04:47:44;6.90;;;3.00;;
24897;SDS011;12957;49.434;8.684;2022-09-21T04:50:09;5.90;;;3.27;;
24897;SDS011;12957;49.434;8.684;2022-09-21T04:52:35;4.83;;;3.20;;
24897;SDS011;12957;49.434;8.684;2022-09-21T04:55:01;6.43;;;3.00;;
24897;SDS011;12957;49.434;8.684;2022-09-21T04:57:26;5.10;;;3.40;;
24897;SDS011;12957;49.434;8.684;2022-09-21T04:59:51;8.67;;;3.30;;
24897;SDS011;12957;49.434;8.684;2022-09-21T05:02:17;5.97;;;2.93;;
24897;SDS011;12957;49.434;8.684;2022-09-21T05:04:43;4.73;;;3.13;;
24897;SDS011;12957;49.434;8.684;2022-09-21T05:07:08;5.03;;;3.00;;
24897;SDS011;12957;49.434;8.684;2022-09-21T05:09:34;4.87;;;3.10;;
24897;SDS011;12957;49.434;8.684;2022-09-21T05:12:18;5.87;;;2.87;;
24897;SDS011;12957;49.434;8.684;2022-09-21T05:14:43;5.70;;;3.10;;
24897;SDS011;12957;49.434;8.684;2022-09-21T05:17:09;6.60;;;2.93;;
24897;SDS011;12957;49.434;8.684;2022-09-21T05:19:35;7.00;;;3.30;;
24897;SDS011;12957;49.434;8.684;2022-09-21T05:22:01;7.57;;;2.90;;
24897;SDS011;12957;49.434;8.684;2022-09-21T05:24:26;7.30;;;3.07;;
24897;SDS011;12957;49.434;8.684;2022-09-21T05:26:52;7.57;;;3.20;;
24897;SDS011;12957;49.434;8.684;2022-09-21T05:29:17;4.47;;;3.07;;
24897;SDS011;12957;49.434;8.684;2022-09-21T05:31:47;4.23;;;3.27;;
24897;SDS011;12957;49.434;8.684;2022-09-21T05:37:10;3.83;;;2.80;;
24897;SDS011;12957;49.434;8.684;2022-09-21T05:39:55;4.93;;;2.60;;
24897;SDS011;12957;49.434;8.684;2022-09-21T05:42:21;6.00;;;3.00;;
24897;SDS011;12957;49.434;8.684;2022-09-21T05:44:47;4.30;;;2.90;;
24897;SDS011;12957;49.434;8.684;2022-09-21T06:00:56;6.40;;;3.47;;
24897;SDS011;12957;49.434;8.684;2022-09-21T06:03:44;9.27;;;4.20;;
24897;SDS011;12957;49.434;8.684;2022-09-21T06:06:12;8.20;;;4.10;;
24897;SDS011;12957;49.434;8.684;2022-09-21T06:08:38;7.43;;;4.60;;
24897;SDS011;12957;49.434;8.684;2022-09-21T06:11:03;10.47;;;5.27;;
24897;SDS011;12957;49.434;8.684;2022-09-21T06:13:29;8.60;;;4.77;;
24897;SDS011;12957;49.434;8.684;2022-09-21T06:15:54;11.10;;;3.75;;
24897;SDS011;12957;49.434;8.684;2022-09-21T06:18:21;7.47;;;3.50;;
24897;SDS011;12957;49.434;8.684;2022-09-21T06:20:46;14.10;;;3.20;;
24897;SDS011;12957;49.434;8.684;2022-09-21T06:23:13;3.90;;;3.28;;
24897;SDS011;12957;49.434;8.684;2022-09-21T06:25:38;6.78;;;2.92;;
24897;SDS011;12957;49.434;8.684;2022-09-21T06:28:05;6.55;;;3.78;;
24897;SDS011;12957;49.434;8.684;2022-09-21T06:30:34;8.73;;;3.20;;
24897;SDS011;12957;49.434;8.684;2022-09-21T06:33:00;3.88;;;2.80;;
24897;SDS011;12957;49.434;8.684;2022-09-21T06:35:29;11.38;;;3.00;;
24897;SDS011;12957;49.434;8.684;2022-09-21T06:37:56;4.82;;;2.50;;
24897;SDS011;12957;49.434;8.684;2022-09-21T06:40:25;6.13;;;2.75;;
24897;SDS011;12957;49.434;8.684;2022-09-21T06:42:54;7.40;;;2.45;;
24897;SDS011;12957;49.434;8.684;2022-09-21T06:45:23;3.65;;;2.83;;
24897;SDS011;12957;49.434;8.684;2022-09-21T06:47:49;3.08;;;2.63;;
24897;SDS011;12957;49.434;8.684;2022-09-21T06:50:14;12.57;;;3.30;;
24897;SDS011;12957;49.434;8.684;2022-09-21T06:52:40;3.88;;;2.80;;
24897;SDS011;12957;49.434;8.684;2022-09-21T06:55:06;5.65;;;3.53;;
24897;SDS011;12957;49.434;8.684;2022-09-21T06:57:32;8.85;;;3.17;;
24897;SDS011;12957;49.434;8.684;2022-09-21T06:59:57;8.00;;;3.10;;
24897;SDS011;12957;49.434;8.684;2022-09-21T07:02:23;4.57;;;3.17;;
24897;SDS011;12957;49.434;8.684;2022-09-21T07:04:48;5.63;;;3.17;;
24897;SDS011;12957;49.434;8.684;2022-09-21T07:07:14;4.78;;;3.33;;
24897;SDS011;12957;49.434;8.684;2022-09-21T07:09:39;3.63;;;2.70;;
24897;SDS011;12957;49.434;8.684;2022-09-21T07:12:05;9.65;;;3.22;;
24897;SDS011;12957;49.434;8.684;2022-09-21T07:14:31;3.40;;;3.10;;
24897;SDS011;12957;49.434;8.684;2022-09-21T07:16:57;7.90;;;3.60;;
24897;SDS011;12957;49.434;8.684;2022-09-21T07:19:23;5.22;;;3.30;;
24897;SDS011;12957;49.434;8.684;2022-09-21T07:21:49;10.10;;;3.40;;
24897;SDS011;12957;49.434;8.684;2022-09-21T07:24:17;5.20;;;3.63;;
24897;SDS011;12957;49.434;8.684;2022-09-21T07:26:42;7.53;;;3.47;;
24897;SDS011;12957;49.434;8.684;2022-09-21T07:29:08;6.50;;;3.33;;
24897;SDS011;12957;49.434;8.684;2022-09-21T07:31:33;5.38;;;3.20;;
24897;SDS011;12957;49.434;8.684;2022-09-21T07:33:59;3.90;;;3.17;;
24897;SDS011;12957;49.434;8.684;2022-09-21T07:36:24;6.97;;;3.70;;
24897;SDS011;12957;49.434;8.684;2022-09-21T07:38:50;6.15;;;3.30;;
24897;SDS011;12957;49.434;8.684;2022-09-21T07:41:17;3.80;;;3.33;;
24897;SDS011;12957;49.434;8.684;2022-09-21T07:43:43;5.43;;;3.03;;
24897;SDS011;12957;49.434;8.684;2022-09-21T07:46:09;3.75;;;3.03;;
24897;SDS011;12957;49.434;8.684;2022-09-21T07:48:36;7.57;;;3.80;;
24897;SDS011;12957;49.434;8.684;2022-09-21T07:51:06;8.30;;;3.22;;
24897;SDS011;12957;49.434;8.684;2022-09-21T07:53:33;5.38;;;3.38;;
24897;SDS011;12957;49.434;8.684;2022-09-21T07:55:59;5.35;;;3.28;;
24897;SDS011;12957;49.434;8.684;2022-09-21T07:58:26;6.97;;;3.33;;
24897;SDS011;12957;49.434;8.684;2022-09-21T08:01:10;4.07;;;3.25;;
24897;SDS011;12957;49.434;8.684;2022-09-21T08:03:36;6.50;;;3.20;;
24897;SDS011;12957;49.434;8.684;2022-09-21T08:06:02;4.60;;;3.22;;
24897;SDS011;12957;49.434;8.684;2022-09-21T08:08:28;6.43;;;3.40;;
24897;SDS011;12957;49.434;8.684;2022-09-21T08:10:53;4.10;;;3.25;;
24897;SDS011;12957;49.434;8.684;2022-09-21T08:13:21;4.53;;;3.33;;
24897;SDS011;12957;49.434;8.684;2022-09-21T08:15:55;6.35;;;3.20;;
24897;SDS011;12957;49.434;8.684;2022-09-21T08:18:21;3.53;;;2.95;;
24897;SDS011;12957;49.434;8.684;2022-09-21T08:20:52;4.00;;;3.45;;
24897;SDS011;12957;49.434;8.684;2022-09-21T08:23:20;6.43;;;3.78;;
24897;SDS011;12957;49.434;8.684;2022-09-21T08:25:46;3.92;;;3.38;;
24897;SDS011;12957;49.434;8.684;2022-09-21T08:28:12;6.93;;;3.40;;
24897;SDS011;12957;49.434;8.684;2022-09-21T08:30:38;4.28;;;3.00;;
24897;SDS011;12957;49.434;8.684;2022-09-21T08:33:04;4.80;;;2.88;;
24897;SDS011;12957;49.434;8.684;2022-09-21T08:35:31;5.43;;;3.63;;
24897;SDS011;12957;49.434;8.684;2022-09-21T08:37:56;4.68;;;3.00;;
24897;SDS011;12957;49.434;8.684;2022-09-21T08:40:22;9.52;;;3.42;;
24897;SDS011;12957;49.434;8.684;2022-09-21T08:45:22;4.80;;;3.42;;
24897;SDS011;12957;49.434;8.684;2022-09-21T08:47:50;4.53;;;3.30;;
24897;SDS011;12957;49.434;8.684;2022-09-21T08:52:46;4.75;;;2.97;;
24897;SDS011;12957;49.434;8.684;2022-09-21T08:55:15;9.52;;;3.33;;
24897;SDS011;12957;49.434;8.684;2022-09-21T08:57:42;6.80;;;3.20;;
24897;SDS011;12957;49.434;8.684;2022-09-21T09:00:15;6.47;;;3.47;;
24897;SDS011;12957;49.434;8.684;2022-09-21T09:11:07;6.85;;;3.60;;
24897;SDS011;12957;49.434;8.684;2022-09-21T09:16:52;6.68;;;3.88;;
24897;SDS011;12957;49.434;8.684;2022-09-21T09:19:32;5.45;;;2.72;;
24897;SDS011;12957;49.434;8.684;2022-09-21T09:22:03;3.40;;;2.55;;
24897;SDS011;12957;49.434;8.684;2022-09-21T09:24:35;6.50;;;3.35;;
24897;SDS011;12957;49.434;8.684;2022-09-21T09:27:05;3.42;;;2.85;;
24897;SDS011;12957;49.434;8.684;2022-09-21T09:32:16;3.40;;;2.63;;
24897;SDS011;12957;49.434;8.684;2022-09-21T09:34:54;7.88;;;2.88;;
24897;SDS011;12957;49.434;8.684;2022-09-21T09:37:28;4.00;;;2.60;;
24897;SDS011;12957;49.434;8.684;2022-09-21T09:39:55;6.15;;;2.72;;
24897;SDS011;12957;49.434;8.684;2022-09-21T09:45:35;2.72;;;2.50;;
24897;SDS011;12957;49.434;8.684;2022-09-21T09:51:10;3.00;;;2.20;;
24897;SDS011;12957;49.434;8.684;2022-09-21T09:53:36;5.28;;;2.13;;
24897;SDS011;12957;49.434;8.684;2022-09-21T09:56:02;2.92;;;2.28;;
24897;SDS011;12957;49.434;8.684;2022-09-21T09:58:36;3.25;;;2.42;;
24897;SDS011;12957;49.434;8.684;2022-09-21T10:01:39;2.53;;;2.13;;
24897;SDS011;12957;49.434;8.684;2022-09-21T10:04:09;4.25;;;2.00;;
24897;SDS011;12957;49.434;8.684;2022-09-21T10:06:36;4.47;;;2.10;;
24897;SDS011;12957;49.434;8.684;2022-09-21T10:09:24;2.78;;;2.00;;
24897;SDS011;12957;49.434;8.684;2022-09-21T10:11:48;3.03;;;2.00;;
24897;SDS011;12957;49.434;8.684;2022-09-21T10:14:21;4.55;;;1.90;;
24897;SDS011;12957;49.434;8.684;2022-09-21T10:16:48;3.70;;;2.30;;
24897;SDS011;12957;49.434;8.684;2022-09-21T10:19:22;6.70;;;2.97;;
24897;SDS011;12957;49.434;8.684;2022-09-21T10:21:49;2.65;;;2.17;;
24897;SDS011;12957;49.434;8.684;2022-09-21T10:26:51;3.17;;;1.90;;
24897;SDS011;12957;49.434;8.684;2022-09-21T10:32:03;3.03;;;2.30;;
24897;SDS011;12957;49.434;8.684;2022-09-21T10:34:31;3.60;;;2.85;;
24897;SDS011;12957;49.434;8.684;2022-09-21T10:36:58;6.45;;;2.20;;
24897;SDS011;12957;49.434;8.684;2022-09-21T10:44:39;3.50;;;2.25;;
24897;SDS011;12957;49.434;8.684;2022-09-21T10:50:19;3.30;;;2.20;;
24897;SDS011;12957;49.434;8.684;2022-09-21T10:52:46;7.93;;;2.47;;
24897;SDS011;12957;49.434;8.684;2022-09-21T10:55:15;6.78;;;2.55;;
24897;SDS011;12957;49.434;8.684;2022-09-21T10:57:43;5.70;;;2.25;;
24897;SDS011;12957;49.434;8.684;2022-09-21T11:02:53;4.25;;;2.28;;
24897;SDS011;12957;49.434;8.684;2022-09-21T11:05:24;3.60;;;1.85;;
24897;SDS011;12957;49.434;8.684;2022-09-21T11:13:30;4.53;;;1.80;;
24897;SDS011;12957;49.434;8.684;2022-09-21T11:21:15;2.70;;;1.88;;
24897;SDS011;12957;49.434;8.684;2022-09-21T11:26:23;3.67;;;1.80;;
24897;SDS011;12957;49.434;8.684;2022-09-21T11:28:52;1.80;;;1.70;;
24897;SDS011;12957;49.434;8.684;2022-09-21T11:34:18;3.58;;;2.10;;
24897;SDS011;12957;49.434;8.684;2022-09-21T11:36:46;5.18;;;1.77;;
24897;SDS011;12957;49.434;8.684;2022-09-21T11:39:29;3.35;;;1.52;;
24897;SDS011;12957;49.434;8.684;2022-09-21T11:44:53;2.25;;;1.27;;
24897;SDS011;12957;49.434;8.684;2022-09-21T11:50:01;2.63;;;1.58;;
24897;SDS011;12957;49.434;8.684;2022-09-21T12:00:32;4.18;;;1.35;;
24897;SDS011;12957;49.434;8.684;2022-09-21T12:22:02;4.57;;;1.40;;
24897;SDS011;12957;49.434;8.684;2022-09-21T12:24:36;2.30;;;0.90;;
24897;SDS011;12957;49.434;8.684;2022-09-21T12:27:22;2.75;;;1.00;;
24897;SDS011;12957;49.434;8.684;2022-09-21T12:29:51;2.90;;;1.10;;
24897;SDS011;12957;49.434;8.684;2022-09-21T12:32:36;0.98;;;0.98;;
24897;SDS011;12957;49.434;8.684;2022-09-21T12:35:23;1.73;;;1.25;;
24897;SDS011;12957;49.434;8.684;2022-09-21T12:38:04;1.00;;;0.90;;
24897;SDS011;12957;49.434;8.684;2022-09-21T12:40:37;0.95;;;0.88;;
24897;SDS011;12957;49.434;8.684;2022-09-21T12:43:12;4.18;;;0.85;;
24897;SDS011;12957;49.434;8.684;2022-09-21T12:46:02;0.98;;;0.95;;
24897;SDS011;12957;49.434;8.684;2022-09-21T12:48:32;0.60;;;0.60;;
24897;SDS011;12957;49.434;8.684;2022-09-21T12:51:12;1.25;;;0.70;;
24897;SDS011;12957;49.434;8.684;2022-09-21T12:54:00;1.55;;;0.60;;
24897;SDS011;12957;49.434;8.684;2022-09-21T12:56:44;0.50;;;0.50;;
24897;SDS011;12957;49.434;8.684;2022-09-21T13:13:58;0.90;;;0.80;;
24897;SDS011;12957;49.434;8.684;2022-09-21T13:15:57;0.70;;;0.70;;
24897;SDS011;12957;49.434;8.684;2022-09-21T13:20:50;0.75;;;0.70;;
24897;SDS011;12957;49.434;8.684;2022-09-21T13:23:19;2.28;;;0.80;;
24897;SDS011;12957;49.434;8.684;2022-09-21T13:25:47;0.60;;;0.60;;
24897;SDS011;12957;49.434;8.684;2022-09-21T13:28:22;0.55;;;0.55;;
24897;SDS011;12957;49.434;8.684;2022-09-21T13:33:40;0.95;;;0.70;;
24897;SDS011;12957;49.434;8.684;2022-09-21T13:36:45;0.60;;;0.60;;
24897;SDS011;12957;49.434;8.684;2022-09-21T13:44:57;1.75;;;0.88;;
24897;SDS011;12957;49.434;8.684;2022-09-21T13:47:30;0.68;;;0.68;;
24897;SDS011;12957;49.434;8.684;2022-09-21T13:49:56;0.77;;;0.77;;
24897;SDS011;12957;49.434;8.684;2022-09-21T13:57:49;0.60;;;0.60;;
24897;SDS011;12957;49.434;8.684;2022-09-21T14:03:03;1.50;;;0.70;;
24897;SDS011;12957;49.434;8.684;2022-09-21T14:08:05;1.17;;;0.70;;
24897;SDS011;12957;49.434;8.684;2022-09-21T14:13:32;0.60;;;0.60;;
24897;SDS011;12957;49.434;8.684;2022-09-21T14:24:35;0.52;;;0.52;;
24897;SDS011;12957;49.434;8.684;2022-09-21T14:29:43;0.60;;;0.60;;
24897;SDS011;12957;49.434;8.684;2022-09-21T14:32:13;0.85;;;0.60;;
24897;SDS011;12957;49.434;8.684;2022-09-21T14:34:41;0.82;;;0.63;;
24897;SDS011;12957;49.434;8.684;2022-09-21T14:37:13;1.73;;;1.10;;
24897;SDS011;12957;49.434;8.684;2022-09-21T14:39:45;0.93;;;0.60;;
24897;SDS011;12957;49.434;8.684;2022-09-21T14:42:22;1.25;;;0.70;;
24897;SDS011;12957;49.434;8.684;2022-09-21T14:44:51;0.35;;;0.35;;
24897;SDS011;12957;49.434;8.684;2022-09-21T14:49:58;0.68;;;0.68;;
24897;SDS011;12957;49.434;8.684;2022-09-21T14:55:38;0.95;;;0.60;;
24897;SDS011;12957;49.434;8.684;2022-09-21T15:00:46;0.60;;;0.60;;
24897;SDS011;12957;49.434;8.684;2022-09-21T15:11:49;1.35;;;0.65;;
24897;SDS011;12957;49.434;8.684;2022-09-21T15:16:52;0.50;;;0.50;;
24897;SDS011;12957;49.434;8.684;2022-09-21T15:24:52;0.75;;;0.75;;
24897;SDS011;12957;49.434;8.684;2022-09-21T15:27:22;0.60;;;0.60;;
24897;SDS011;12957;49.434;8.684;2022-09-21T15:29:50;0.50;;;0.50;;
24897;SDS011;12957;49.434;8.684;2022-09-21T15:32:37;1.70;;;0.80;;
24897;SDS011;12957;49.434;8.684;2022-09-21T15:35:05;0.70;;;0.70;;
24897;SDS011;12957;49.434;8.684;2022-09-21T15:37:36;1.00;;;0.63;;
24897;SDS011;12957;49.434;8.684;2022-09-21T15:40:05;0.60;;;0.60;;
24897;SDS011;12957;49.434;8.684;2022-09-21T15:42:40;3.92;;;0.77;;
24897;SDS011;12957;49.434;8.684;2022-09-21T15:48:40;0.47;;;0.47;;
24897;SDS011;12957;49.434;8.684;2022-09-21T15:54:04;0.70;;;0.70;;
24897;SDS011;12957;49.434;8.684;2022-09-21T15:56:33;2.22;;;0.70;;
24897;SDS011;12957;49.434;8.684;2022-09-21T15:59:02;0.63;;;0.55;;
24897;SDS011;12957;49.434;8.684;2022-09-21T16:01:37;0.85;;;0.70;;
24897;SDS011;12957;49.434;8.684;2022-09-21T16:04:06;0.50;;;0.50;;
24897;SDS011;12957;49.434;8.684;2022-09-21T16:06:42;0.60;;;0.60;;
24897;SDS011;12957;49.434;8.684;2022-09-21T16:11:48;0.50;;;0.50;;
24897;SDS011;12957;49.434;8.684;2022-09-21T16:14:14;0.90;;;0.65;;
24897;SDS011;12957;49.434;8.684;2022-09-21T16:22:38;0.85;;;0.50;;
24897;SDS011;12957;49.434;8.684;2022-09-21T16:30:40;1.38;;;0.60;;
24897;SDS011;12957;49.434;8.684;2022-09-21T16:38:41;0.75;;;0.70;;
24897;SDS011;12957;49.434;8.684;2022-09-21T16:41:07;0.60;;;0.60;;
24897;SDS011;12957;49.434;8.684;2022-09-21T16:43:33;0.57;;;0.57;;
24897;SDS011;12957;49.434;8.684;2022-09-21T16:45:59;0.60;;;0.60;;
24897;SDS011;12957;49.434;8.684;2022-09-21T16:48:26;0.70;;;0.70;;
24897;SDS011;12957;49.434;8.684;2022-09-21T16:50:52;0.60;;;0.60;;
24897;SDS011;12957;49.434;8.684;2022-09-21T16:53:18;0.63;;;0.63;;
24897;SDS011;12957;49.434;8.684;2022-09-21T16:55:45;1.50;;;0.85;;
24897;SDS011;12957;49.434;8.684;2022-09-21T16:58:12;0.52;;;0.52;;
24897;SDS011;12957;49.434;8.684;2022-09-21T17:00:38;0.73;;;0.73;;
24897;SDS011;12957;49.434;8.684;2022-09-21T17:03:04;0.55;;;0.55;;
24897;SDS011;12957;49.434;8.684;2022-09-21T17:05:30;0.60;;;0.60;;
24897;SDS011;12957;49.434;8.684;2022-09-21T17:07:56;1.08;;;0.60;;
24897;SDS011;12957;49.434;8.684;2022-09-21T17:10:23;1.60;;;0.70;;
24897;SDS011;12957;49.434;8.684;2022-09-21T17:12:53;0.60;;;0.60;;
24897;SDS011;12957;49.434;8.684;2022-09-21T17:15:19;0.90;;;0.70;;
24897;SDS011;12957;49.434;8.684;2022-09-21T17:17:47;0.70;;;0.70;;
24897;SDS011;12957;49.434;8.684;2022-09-21T17:20:14;0.60;;;0.60;;
24897;SDS011;12957;49.434;8.684;2022-09-21T17:22:42;3.20;;;0.70;;
24897;SDS011;12957;49.434;8.684;2022-09-21T17:25:08;1.20;;;0.70;;
24897;SDS011;12957;49.434;8.684;2022-09-21T17:27:34;0.95;;;0.80;;
24897;SDS011;12957;49.434;8.684;2022-09-21T17:29:59;3.15;;;1.15;;
24897;SDS011;12957;49.434;8.684;2022-09-21T17:32:27;0.70;;;0.70;;
24897;SDS011;12957;49.434;8.684;2022-09-21T17:34:54;0.70;;;0.70;;
24897;SDS011;12957;49.434;8.684;2022-09-21T17:37:24;0.70;;;0.70;;
24897;SDS011;12957;49.434;8.684;2022-09-21T17:39:49;3.17;;;0.77;;
24897;SDS011;12957;49.434;8.684;2022-09-21T17:42:18;0.65;;;0.63;;
24897;SDS011;12957;49.434;8.684;2022-09-21T17:47:21;0.77;;;0.77;;
24897;SDS011;12957;49.434;8.684;2022-09-21T17:49:49;0.93;;;0.93;;
24897;SDS011;12957;49.434;8.684;2022-09-21T17:52:16;1.13;;;0.63;;
24897;SDS011;12957;49.434;8.684;2022-09-21T17:55:02;0.95;;;0.90;;
24897;SDS011;12957;49.434;8.684;2022-09-21T18:00:24;4.90;;;1.63;;
24897;SDS011;12957;49.434;8.684;2022-09-21T18:02:59;2.17;;;0.77;;
24897;SDS011;12957;49.434;8.684;2022-09-21T18:05:27;0.80;;;0.80;;
24897;SDS011;12957;49.434;8.684;2022-09-21T18:07:54;0.88;;;0.88;;
24897;SDS011;12957;49.434;8.684;2022-09-21T18:10:21;4.57;;;1.02;;
24897;SDS011;12957;49.434;8.684;2022-09-21T18:20:55;1.17;;;0.90;;
24897;SDS011;12957;49.434;8.684;2022-09-21T18:26:00;2.35;;;0.70;;
24897;SDS011;12957;49.434;8.684;2022-09-21T18:36:23;0.82;;;0.82;;
24897;SDS011;12957;49.434;8.684;2022-09-21T18:39:10;0.90;;;0.90;;
24897;SDS011;12957;49.434;8.684;2022-09-21T18:42:04;4.35;;;1.15;;
24897;SDS011;12957;49.434;8.684;2022-09-21T18:44:42;0.98;;;0.90;;
24897;SDS011;12957;49.434;8.684;2022-09-21T18:47:28;1.15;;;1.15;;
24897;SDS011;12957;49.434;8.684;2022-09-21T18:52:53;1.10;;;1.08;;
24897;SDS011;12957;49.434;8.684;2022-09-21T18:55:30;2.25;;;1.30;;
24897;SDS011;12957;49.434;8.684;2022-09-21T18:57:57;1.60;;;1.05;;
24897;SDS011;12957;49.434;8.684;2022-09-21T19:00:24;1.20;;;1.20;;
24897;SDS011;12957;49.434;8.684;2022-09-21T19:03:22;2.03;;;1.30;;
24897;SDS011;12957;49.434;8.684;2022-09-21T19:05:53;3.95;;;1.40;;
24897;SDS011;12957;49.434;8.684;2022-09-21T19:11:28;3.30;;;1.20;;
24897;SDS011;12957;49.434;8.684;2022-09-21T19:20:03;1.30;;;1.30;;
24897;SDS011;12957;49.434;8.684;2022-09-21T19:22:40;1.83;;;1.20;;
24897;SDS011;12957;49.434;8.684;2022-09-21T19:25:29;1.95;;;1.00;;
24897;SDS011;12957;49.434;8.684;2022-09-21T19:27:59;1.95;;;1.25;;
24897;SDS011;12957;49.434;8.684;2022-09-21T19:30:26;0.98;;;0.98;;
24897;SDS011;12957;49.434;8.684;2022-09-21T19:32:55;3.75;;;1.30;;
24897;SDS011;12957;49.434;8.684;2022-09-21T19:35:26;1.40;;;1.30;;
24897;SDS011;12957;49.434;8.684;2022-09-21T19:37:53;5.35;;;1.48;;
24897;SDS011;12957;49.434;8.684;2022-09-21T19:40:23;2.05;;;1.10;;
24897;SDS011;12957;49.434;8.684;2022-09-21T19:48:03;4.80;;;1.42;;
24897;SDS011;12957;49.434;8.684;2022-09-21T19:53:12;5.07;;;1.40;;
24897;SDS011;12957;49.434;8.684;2022-09-21T19:55:57;1.35;;;1.25;;